Time;durP1;ratioP1;P1;durP2;ratioP2;P2;SDS_P1;SDS_P2;PMS_P1;PMS_P2;Temp;Humidity;BMP_temperature;BMP_pressure;BME280_temperature;BME280_humidity;BME280_pressure;Samples;Min_cycle;Max_cycle;Signal;HPM_P1;HPM_P2
2022/08/23 14:52:03;;;;;;;4.88;2.13;;;31.30;42.50;;;;;;2577678;22;20035;-78
2022/08/23 14:53:05;;;;;;;3.45;1.83;;;31.30;42.70;;;;;;2594038;22;20525;-80
2022/08/23 14:54:09;;;;;;;4.00;1.92;;;31.30;43.00;;;;;;2594876;22;20007;-80
2022/08/23 14:55:11;;;;;;;4.22;2.10;;;31.40;42.70;;;;;;2594072;22;20008;-80
2022/08/23 14:56:12;;;;;;;3.95;1.83;;;31.30;42.30;;;;;;2594775;22;19996;-80
2022/08/23 14:57:12;;;;;;;4.50;1.77;;;31.30;42.00;;;;;;2581165;23;20042;-79
2022/08/23 14:58:13;;;;;;;4.35;2.00;;;31.40;42.00;;;;;;2581116;23;20002;-77
2022/08/23 14:59:14;;;;;;;5.25;2.10;;;31.30;42.10;;;;;;2594899;22;20027;-76
2022/08/23 15:00:16;;;;;;;7.90;2.30;;;31.30;42.50;;;;;;2594081;22;20000;-76
2022/08/23 15:01:18;;;;;;;4.82;2.22;;;31.30;42.10;;;;;;2593972;22;20757;-75
2022/08/23 15:02:25;;;;;;;3.83;2.00;;;31.30;42.30;;;;;;2594187;22;20367;-77
2022/08/23 15:03:26;;;;;;;3.22;1.55;;;31.40;42.60;;;;;;2579412;23;20008;-75
2022/08/23 15:04:27;;;;;;;5.35;1.90;;;31.30;42.10;;;;;;2579919;22;20012;-76
2022/08/23 15:05:28;;;;;;;5.05;1.73;;;31.40;42.50;;;;;;2580632;23;20348;-76
2022/08/23 15:06:29;;;;;;;3.67;2.20;;;31.40;42.20;;;;;;2580103;23;20034;-76
2022/08/23 15:07:29;;;;;;;5.30;1.90;;;31.40;42.50;;;;;;2594168;22;20011;-76
2022/08/23 15:08:30;;;;;;;3.63;1.88;;;31.40;42.30;;;;;;2594172;22;20437;-76
2022/08/23 15:09:31;;;;;;;5.72;2.20;;;31.30;42.80;;;;;;2593235;22;20007;-76
2022/08/23 15:10:31;;;;;;;4.97;1.88;;;31.30;42.50;;;;;;2579969;23;20049;-76
2022/08/23 15:11:32;;;;;;;5.68;1.73;;;31.30;42.60;;;;;;2580699;23;20011;-76
2022/08/23 15:12:33;;;;;;;6.22;1.90;;;31.40;42.90;;;;;;2593104;22;20030;-75
2022/08/23 15:13:38;;;;;;;3.63;1.90;;;31.30;42.50;;;;;;2593681;22;19996;-75
2022/08/23 15:14:38;;;;;;;5.38;2.05;;;31.40;42.70;;;;;;2579692;23;20014;-76
2022/08/23 15:15:39;;;;;;;3.90;1.95;;;31.40;42.40;;;;;;2566971;23;20015;-75
2022/08/23 15:16:40;;;;;;;4.38;2.13;;;31.40;42.90;;;;;;2580100;22;20000;-76
2022/08/23 15:17:53;;;;;;;8.63;2.17;;;31.30;42.50;;;;;;2592999;22;20066;-76
2022/08/23 15:18:55;;;;;;;4.03;2.33;;;31.40;42.40;;;;;;2593943;22;20006;-76
2022/08/23 15:19:55;;;;;;;3.17;2.03;;;31.30;42.80;;;;;;2593962;22;20027;-75
2022/08/23 15:20:56;;;;;;;4.60;2.38;;;31.30;43.00;;;;;;2580594;23;20004;-75
2022/08/23 15:21:58;;;;;;;7.35;2.22;;;31.30;42.90;;;;;;2580326;23;20083;-76
2022/08/23 15:22:59;;;;;;;4.35;2.13;;;31.30;43.10;;;;;;2593411;22;20010;-75
2022/08/23 15:24:00;;;;;;;4.80;1.88;;;31.30;42.90;;;;;;2594211;22;20056;-76
2022/08/23 15:25:00;;;;;;;4.35;2.10;;;31.40;42.50;;;;;;2580640;23;20066;-75
2022/08/23 15:26:01;;;;;;;3.45;1.75;;;31.30;41.60;;;;;;2580952;23;20522;-76
2022/08/23 15:27:02;;;;;;;5.05;2.08;;;31.30;42.10;;;;;;2594637;22;20007;-76
2022/08/23 15:28:07;;;;;;;5.82;2.42;;;31.40;42.40;;;;;;2581155;23;20019;-76
2022/08/23 15:29:08;;;;;;;6.57;2.55;;;31.30;42.50;;;;;;2581748;22;20654;-75
2022/08/23 15:30:11;;;;;;;4.13;2.10;;;31.30;42.00;;;;;;2594314;22;20362;-75
2022/08/23 15:31:13;;;;;;;3.55;2.25;;;31.30;42.00;;;;;;2580526;23;20014;-76
2022/08/23 15:32:14;;;;;;;3.35;2.20;;;31.30;42.60;;;;;;2581207;22;20075;-75
2022/08/23 15:33:14;;;;;;;6.90;2.20;;;31.30;42.90;;;;;;2593488;22;19996;-76
2022/08/23 15:34:15;;;;;;;2.97;2.10;;;31.30;42.90;;;;;;2593340;22;20025;-75
2022/08/23 15:35:15;;;;;;;5.07;1.98;;;31.30;43.00;;;;;;2580957;23;20027;-76
2022/08/23 15:36:17;;;;;;;4.35;1.60;;;31.30;42.90;;;;;;2580838;23;20000;-75
2022/08/23 15:37:20;;;;;;;3.28;1.73;;;31.30;43.10;;;;;;2593965;22;20331;-75
2022/08/23 15:38:23;;;;;;;4.47;2.20;;;31.30;43.50;;;;;;2594565;22;20000;-75
2022/08/23 15:39:24;;;;;;;3.75;1.95;;;31.30;43.10;;;;;;2593152;22;20000;-76
2022/08/23 15:40:25;;;;;;;3.55;2.08;;;31.30;42.80;;;;;;2580294;23;20015;-76
2022/08/23 15:41:25;;;;;;;6.53;2.17;;;31.30;42.80;;;;;;2567107;23;20004;-75
2022/08/23 15:42:26;;;;;;;3.75;1.85;;;31.30;43.40;;;;;;2580787;23;20004;-77
2022/08/23 15:43:26;;;;;;;5.45;2.08;;;31.30;43.30;;;;;;2580486;23;20428;-77
2022/08/23 15:44:27;;;;;;;3.63;1.90;;;31.40;43.30;;;;;;2580720;23;20008;-77
2022/08/23 15:45:30;;;;;;;7.05;2.08;;;31.40;42.90;;;;;;2594648;22;20004;-77
2022/08/23 15:46:30;;;;;;;8.15;2.33;;;31.40;42.70;;;;;;2594176;22;20007;-75
2022/08/23 15:47:35;;;;;;;6.88;2.20;;;31.40;43.20;;;;;;2593896;22;19996;-77
2022/08/23 15:48:50;;;;;;;4.65;2.30;;;31.40;43.20;;;;;;2594118;22;20411;-77
2022/08/23 15:49:50;;;;;;;5.22;2.10;;;31.40;43.10;;;;;;2594632;22;20075;-77
2022/08/23 15:50:52;;;;;;;3.13;2.15;;;31.40;42.90;;;;;;2579448;23;20056;-77
2022/08/23 15:51:53;;;;;;;4.70;2.00;;;31.40;42.80;;;;;;2579284;23;20023;-77
2022/08/23 15:52:54;;;;;;;5.00;2.20;;;31.50;43.50;;;;;;2580845;23;20026;-77
2022/08/23 15:53:55;;;;;;;5.53;2.30;;;31.40;43.70;;;;;;2580586;23;19997;-77
2022/08/23 15:54:55;;;;;;;4.80;2.10;;;31.40;43.70;;;;;;2580781;23;20008;-77
2022/08/23 15:55:56;;;;;;;3.90;2.00;;;31.50;43.20;;;;;;2580707;23;20107;-77
2022/08/23 15:56:57;;;;;;;3.25;1.77;;;31.40;43.30;;;;;;2582001;22;20452;-77
2022/08/23 15:57:58;;;;;;;4.32;2.22;;;31.40;42.90;;;;;;2581369;23;20084;-77
2022/08/23 15:58:59;;;;;;;6.75;2.20;;;31.40;43.20;;;;;;2581339;23;20028;-78
2022/08/23 16:00:00;;;;;;;5.65;2.10;;;31.40;43.60;;;;;;2581467;23;20087;-77
2022/08/23 16:01:00;;;;;;;3.75;2.40;;;31.40;43.40;;;;;;2582012;23;20102;-77
2022/08/23 16:02:01;;;;;;;3.25;2.33;;;31.40;43.20;;;;;;2582219;23;20000;-77
2022/08/23 16:03:01;;;;;;;5.63;2.25;;;31.30;43.10;;;;;;2581251;23;20004;-78
2022/08/23 16:04:03;;;;;;;7.53;2.40;;;31.30;43.40;;;;;;2582747;23;20075;-79
2022/08/23 16:05:05;;;;;;;4.75;2.30;;;31.40;43.70;;;;;;2569021;23;20013;-79
2022/08/23 16:06:06;;;;;;;5.57;2.20;;;31.30;43.40;;;;;;2568962;23;20087;-79
2022/08/23 16:07:09;;;;;;;3.65;2.10;;;31.30;43.90;;;;;;2581790;23;20008;-79
2022/08/23 16:08:18;;;;;;;4.00;2.10;;;31.30;44.10;;;;;;2569409;23;20052;-78
2022/08/23 16:09:21;;;;;;;4.93;2.33;;;31.30;44.80;;;;;;2582037;23;20561;-79
2022/08/23 16:10:22;;;;;;;4.20;2.25;;;31.30;44.00;;;;;;2569138;23;20119;-79
2022/08/23 16:11:23;;;;;;;4.68;2.28;;;31.30;44.20;;;;;;2581285;23;20435;-79
2022/08/23 16:12:24;;;;;;;8.48;2.30;;;31.30;43.70;;;;;;2582247;23;20000;-79
2022/08/23 16:13:26;;;;;;;5.28;1.80;;;31.30;43.80;;;;;;2581947;22;20420;-79
2022/08/23 16:14:27;;;;;;;4.00;2.08;;;31.30;43.60;;;;;;2582595;23;20443;-79
2022/08/23 16:15:27;;;;;;;6.63;2.40;;;31.30;43.60;;;;;;2583005;22;20328;-80
2022/08/23 16:16:30;;;;;;;8.02;2.13;;;31.30;43.90;;;;;;2582272;23;20064;-79
2022/08/23 16:17:31;;;;;;;3.03;1.88;;;31.30;44.50;;;;;;2582466;23;20011;-80
2022/08/23 16:18:32;;;;;;;6.00;2.58;;;31.30;43.90;;;;;;2582653;23;20011;-79
2022/08/23 16:19:32;;;;;;;4.97;2.22;;;31.30;44.30;;;;;;2582835;23;20359;-80
2022/08/23 16:20:33;;;;;;;5.10;2.17;;;31.30;44.00;;;;;;2582025;23;20363;-81
2022/08/23 16:21:33;;;;;;;6.07;2.13;;;31.20;43.40;;;;;;2582055;23;20032;-81
2022/08/23 16:22:34;;;;;;;3.45;2.25;;;31.20;43.10;;;;;;2582113;23;20008;-81
2022/08/23 16:23:38;;;;;;;4.05;2.22;;;31.20;44.10;;;;;;2581565;23;19992;-81
2022/08/23 16:24:39;;;;;;;3.05;2.05;;;31.20;44.10;;;;;;2581636;23;20004;-81
2022/08/23 16:25:40;;;;;;;6.25;2.55;;;31.20;44.00;;;;;;2581830;23;20004;-81
2022/08/23 16:26:43;;;;;;;6.68;2.50;;;31.10;44.10;;;;;;2582743;23;19997;-81
2022/08/23 16:27:44;;;;;;;5.57;2.13;;;31.10;44.40;;;;;;2582461;23;20011;-81
2022/08/23 16:28:46;;;;;;;5.40;2.22;;;31.20;44.70;;;;;;2582811;23;19996;-80
2022/08/23 16:29:47;;;;;;;8.40;2.25;;;31.10;44.20;;;;;;2581342;23;20022;-80
2022/08/23 16:30:48;;;;;;;3.85;2.00;;;31.20;44.30;;;;;;2569061;23;20016;-80
2022/08/23 16:31:48;;;;;;;3.28;2.08;;;31.10;44.30;;;;;;2569175;23;20032;-81
2022/08/23 16:32:49;;;;;;;5.10;2.20;;;31.10;44.00;;;;;;2569266;23;20064;-82
2022/08/23 16:33:50;;;;;;;7.18;2.15;;;31.10;43.40;;;;;;2581481;23;20011;-79
2022/08/23 16:34:52;;;;;;;3.75;2.00;;;31.10;43.70;;;;;;2582204;23;20003;-80
2022/08/23 16:35:53;;;;;;;5.88;2.22;;;31.00;43.60;;;;;;2581734;23;20008;-80
2022/08/23 16:36:58;;;;;;;4.07;2.25;;;31.00;43.60;;;;;;2569355;23;20091;-80
2022/08/23 16:37:58;;;;;;;3.95;2.35;;;31.00;43.30;;;;;;2570246;23;20009;-81
2022/08/23 16:38:59;;;;;;;2.95;2.00;;;31.00;44.20;;;;;;2569298;23;20076;-81
2022/08/23 16:40:02;;;;;;;2.95;2.17;;;31.00;45.40;;;;;;2581804;23;20489;-81
2022/08/23 16:41:03;;;;;;;11.27;3.47;;;31.00;45.80;;;;;;2582455;23;20030;-81
2022/08/23 16:42:05;;;;;;;2.85;2.03;;;31.00;45.10;;;;;;2582225;23;20004;-80
2022/08/23 16:43:06;;;;;;;4.55;2.00;;;31.00;44.40;;;;;;2581531;23;20008;-81
2022/08/23 16:44:06;;;;;;;5.80;2.13;;;30.90;44.60;;;;;;2582374;23;20004;-81
2022/08/23 16:45:08;;;;;;;5.90;2.17;;;30.90;45.40;;;;;;2581341;22;20011;-81
2022/08/23 16:46:09;;;;;;;4.60;1.92;;;31.00;46.00;;;;;;2581108;23;20008;-81
2022/08/23 16:47:11;;;;;;;4.15;2.10;;;30.90;45.40;;;;;;2581221;23;20031;-79
2022/08/23 16:48:12;;;;;;;5.40;2.58;;;30.90;45.00;;;;;;2582008;23;20031;-79
2022/08/23 16:49:15;;;;;;;2.95;1.85;;;30.90;44.90;;;;;;2581486;23;20032;-79
2022/08/23 16:50:15;;;;;;;2.92;2.22;;;30.90;45.40;;;;;;2581393;23;20004;-80
2022/08/23 16:51:16;;;;;;;6.43;2.42;;;30.90;45.90;;;;;;2582748;23;20007;-79
2022/08/23 16:52:17;;;;;;;6.55;2.20;;;30.90;45.00;;;;;;2581372;23;20351;-79
2022/08/23 16:53:18;;;;;;;5.20;2.10;;;30.90;44.60;;;;;;2581239;23;20431;-79
2022/08/23 16:54:19;;;;;;;5.15;2.40;;;30.90;44.50;;;;;;2581850;23;20005;-79
2022/08/23 16:55:20;;;;;;;2.83;1.90;;;30.80;44.20;;;;;;2581329;23;19996;-79
2022/08/23 16:56:20;;;;;;;3.35;2.47;;;30.80;45.00;;;;;;2581264;23;20016;-79
2022/08/23 16:57:21;;;;;;;3.33;2.00;;;30.80;46.50;;;;;;2568933;23;20462;-80
2022/08/23 16:58:22;;;;;;;4.05;2.00;;;30.80;44.80;;;;;;2581678;23;20071;-80
2022/08/23 16:59:24;;;;;;;6.03;1.80;;;30.70;44.80;;;;;;2582179;23;20014;-80
2022/08/23 17:00:24;;;;;;;5.30;2.20;;;30.70;44.50;;;;;;2581853;23;20039;-80
2022/08/23 17:01:26;;;;;;;5.45;2.45;;;30.70;44.60;;;;;;2582027;23;20436;-79
2022/08/23 17:02:31;;;;;;;2.55;1.90;;;30.60;45.00;;;;;;2582665;23;20012;-79
2022/08/23 17:03:31;;;;;;;4.10;2.53;;;30.60;48.20;;;;;;2580906;23;20004;-79
2022/08/23 17:04:32;;;;;;;6.10;2.55;;;30.60;46.80;;;;;;2568622;23;20099;-79
2022/08/23 17:05:33;;;;;;;4.95;2.38;;;30.60;48.20;;;;;;2581634;23;20062;-78
2022/08/23 17:06:33;;;;;;;8.23;2.53;;;30.70;48.40;;;;;;2582372;23;20006;-78
2022/08/23 17:07:34;;;;;;;4.85;2.30;;;30.70;49.10;;;;;;2581453;23;20028;-79
2022/08/23 17:08:35;;;;;;;4.20;2.10;;;30.70;48.10;;;;;;2581142;23;20008;-79
2022/08/23 17:09:36;;;;;;;4.43;2.33;;;30.70;47.00;;;;;;2581716;23;20478;-78
2022/08/23 17:10:37;;;;;;;5.18;1.90;;;30.70;46.70;;;;;;2581904;23;20050;-77
2022/08/23 17:11:41;;;;;;;4.70;2.20;;;30.60;46.60;;;;;;2582665;23;20000;-77
2022/08/23 17:12:45;;;;;;;2.58;1.80;;;30.60;45.90;;;;;;2582393;23;20042;-78
2022/08/23 17:13:46;;;;;;;3.63;2.10;;;30.60;45.90;;;;;;2582061;23;19993;-78
2022/08/23 17:14:49;;;;;;;3.53;2.38;;;30.60;46.60;;;;;;2582455;23;20049;-77
2022/08/23 17:15:50;;;;;;;2.85;1.77;;;30.60;48.10;;;;;;2581221;23;20059;-77
2022/08/23 17:16:50;;;;;;;4.00;2.33;;;30.50;47.70;;;;;;2581079;23;20051;-77
2022/08/23 17:17:51;;;;;;;8.00;2.28;;;30.50;47.70;;;;;;2582528;22;20037;-77
2022/08/23 17:18:55;;;;;;;4.13;2.40;;;30.50;46.60;;;;;;2582243;23;19992;-77
2022/08/23 17:19:59;;;;;;;4.55;2.15;;;30.50;46.40;;;;;;2581362;23;20000;-77
2022/08/23 17:20:59;;;;;;;4.90;2.70;;;30.50;47.50;;;;;;2581950;23;20340;-76
2022/08/23 17:22:00;;;;;;;5.20;1.75;;;30.50;47.00;;;;;;2582725;23;20138;-76
2022/08/23 17:23:02;;;;;;;3.78;2.13;;;30.40;47.20;;;;;;2574917;23;20008;-77
2022/08/23 17:24:03;;;;;;;3.65;1.92;;;30.40;46.80;;;;;;2580807;23;20000;-77
2022/08/23 17:25:05;;;;;;;2.63;1.95;;;30.40;46.60;;;;;;2581610;23;20004;-76
2022/08/23 17:26:06;;;;;;;7.38;2.13;;;30.40;46.40;;;;;;2581038;23;20004;-76
2022/08/23 17:27:06;;;;;;;4.78;2.00;;;30.40;46.80;;;;;;2568920;23;20463;-77
2022/08/23 17:28:07;;;;;;;7.38;2.30;;;30.30;46.10;;;;;;2580806;23;20008;-77
2022/08/23 17:29:08;;;;;;;4.18;2.28;;;30.30;46.60;;;;;;2580363;23;20088;-77
2022/08/23 17:30:11;;;;;;;5.15;2.05;;;30.30;47.70;;;;;;2580827;23;20492;-77
2022/08/23 17:31:13;;;;;;;3.15;1.92;;;30.30;46.80;;;;;;2582244;22;20000;-77
2022/08/23 17:32:13;;;;;;;4.78;2.08;;;30.20;47.10;;;;;;2582067;23;20309;-76
2022/08/23 17:33:14;;;;;;;4.22;2.50;;;30.20;47.50;;;;;;2581750;23;20023;-76
2022/08/23 17:34:14;;;;;;;4.60;1.75;;;30.20;48.70;;;;;;2580985;23;20000;-77
2022/08/23 17:35:22;;;;;;;4.88;2.10;;;30.20;48.10;;;;;;2580654;23;20693;-76
2022/08/23 17:36:46;;;;;;;3.13;1.67;;;30.20;47.80;;;;;;2580678;23;20000;-77
2022/08/23 17:37:47;;;;;;;4.70;2.05;;;30.10;46.80;;;;;;2580896;23;20023;-77
2022/08/23 17:38:48;;;;;;;5.90;2.20;;;30.10;46.80;;;;;;2580006;23;20004;-77
2022/08/23 17:39:49;;;;;;;4.65;2.33;;;30.10;47.00;;;;;;2580727;23;20030;-77
2022/08/23 17:40:50;;;;;;;4.63;2.20;;;30.00;47.50;;;;;;2580751;23;20014;-77
2022/08/23 17:41:50;;;;;;;4.57;2.40;;;30.00;47.00;;;;;;2568397;23;20511;-76
2022/08/23 17:42:51;;;;;;;2.38;1.55;;;30.00;47.80;;;;;;2567150;23;20417;-76
2022/08/23 17:43:52;;;;;;;4.10;2.05;;;30.00;48.40;;;;;;2578869;23;20011;-76
2022/08/23 17:44:53;;;;;;;5.07;2.22;;;30.00;47.90;;;;;;2579668;23;20012;-76
2022/08/23 17:45:53;;;;;;;4.75;2.25;;;29.90;47.30;;;;;;2581544;23;20028;-77
2022/08/23 17:46:54;;;;;;;6.07;2.22;;;29.90;47.20;;;;;;2580052;23;20008;-77
2022/08/23 17:47:55;;;;;;;5.57;1.92;;;29.90;48.50;;;;;;2580243;23;20008;-76
2022/08/23 17:48:56;;;;;;;2.67;1.60;;;29.90;49.70;;;;;;2581698;23;20018;-77
2022/08/23 17:49:57;;;;;;;2.55;2.00;;;29.90;48.40;;;;;;2581617;23;20349;-77
2022/08/23 17:50:59;;;;;;;6.03;2.28;;;29.90;48.10;;;;;;2581518;23;20328;-78
2022/08/23 17:52:00;;;;;;;8.90;2.33;;;29.90;48.80;;;;;;2580590;23;20016;-77
2022/08/23 17:53:01;;;;;;;5.63;2.50;;;29.80;48.50;;;;;;2580360;23;20007;-77
2022/08/23 17:54:03;;;;;;;4.70;2.13;;;29.90;49.50;;;;;;2582251;23;20028;-77
2022/08/23 17:55:04;;;;;;;5.35;2.35;;;29.90;49.30;;;;;;2579370;23;20011;-77
2022/08/23 17:56:05;;;;;;;3.67;1.73;;;29.90;49.50;;;;;;2567509;23;20008;-77
2022/08/23 17:57:06;;;;;;;3.92;1.98;;;29.80;47.90;;;;;;2580690;23;19996;-77
2022/08/23 17:58:07;;;;;;;5.90;1.80;;;29.80;48.80;;;;;;2580691;22;19996;-77
2022/08/23 17:59:08;;;;;;;3.78;1.85;;;29.80;49.40;;;;;;2580758;23;19996;-76
2022/08/23 18:00:10;;;;;;;3.85;1.58;;;29.80;49.20;;;;;;2568109;23;20015;-77
2022/08/23 18:01:10;;;;;;;5.32;1.95;;;29.70;49.70;;;;;;2580954;23;20042;-77
2022/08/23 18:02:11;;;;;;;3.53;1.75;;;29.70;49.60;;;;;;2581589;23;20428;-77
2022/08/23 18:03:12;;;;;;;3.38;1.63;;;29.70;50.00;;;;;;2580314;23;20000;-77
2022/08/23 18:04:12;;;;;;;2.78;1.70;;;29.70;50.60;;;;;;2582226;22;20088;-76
2022/08/23 18:05:13;;;;;;;2.72;1.88;;;29.70;50.80;;;;;;2581181;23;20000;-76
2022/08/23 18:06:14;;;;;;;2.70;2.08;;;29.70;51.60;;;;;;2581275;23;20321;-77
2022/08/23 18:07:15;;;;;;;5.10;2.15;;;29.60;50.50;;;;;;2581565;23;20011;-78
2022/08/23 18:08:16;;;;;;;6.97;2.20;;;29.60;50.70;;;;;;2581842;23;20000;-78
2022/08/23 18:09:17;;;;;;;7.28;2.03;;;29.60;50.20;;;;;;2581167;23;20062;-79
2022/08/23 18:10:17;;;;;;;3.47;2.00;;;29.60;49.90;;;;;;2581468;23;20139;-79
2022/08/23 18:11:18;;;;;;;2.80;1.77;;;29.50;51.00;;;;;;2581116;23;20031;-77
2022/08/23 18:12:18;;;;;;;3.63;2.10;;;29.50;51.20;;;;;;2580765;23;20004;-77
2022/08/23 18:13:19;;;;;;;6.93;2.20;;;29.50;51.40;;;;;;2580407;23;20087;-78
2022/08/23 18:14:20;;;;;;;7.22;2.38;;;29.50;50.90;;;;;;2579793;23;20058;-78
2022/08/23 18:15:20;;;;;;;4.00;1.83;;;29.40;51.50;;;;;;2580895;23;20090;-77
2022/08/23 18:16:21;;;;;;;4.63;2.45;;;29.40;51.30;;;;;;2581441;23;20435;-77
2022/08/23 18:17:21;;;;;;;5.20;1.98;;;29.40;50.90;;;;;;2582130;23;20004;-77
2022/08/23 18:18:25;;;;;;;5.90;1.83;;;29.30;51.40;;;;;;2582111;23;20026;-77
2022/08/23 18:19:25;;;;;;;3.58;1.85;;;29.30;51.90;;;;;;2581666;23;20000;-77
2022/08/23 18:20:27;;;;;;;3.60;2.13;;;29.30;51.40;;;;;;2580776;23;20011;-76
2022/08/23 18:21:28;;;;;;;5.60;1.90;;;29.30;51.90;;;;;;2581580;23;20004;-76
2022/08/23 18:22:29;;;;;;;4.15;2.13;;;29.20;51.40;;;;;;2581439;23;20012;-77
2022/08/23 18:23:29;;;;;;;4.60;2.33;;;29.20;51.40;;;;;;2567712;23;20016;-77
2022/08/23 18:24:31;;;;;;;5.57;2.40;;;29.10;51.60;;;;;;2581190;23;20008;-78
2022/08/23 18:25:32;;;;;;;6.25;2.05;;;29.10;51.40;;;;;;2581708;23;20011;-77
2022/08/23 18:28:11;;;;;;;3.55;2.17;;;29.10;51.30;;;;;;2581973;23;20440;-76
2022/08/23 18:29:13;;;;;;;8.32;2.38;;;29.00;51.50;;;;;;2581280;23;20011;-76
2022/08/23 18:30:13;;;;;;;3.80;1.77;;;29.00;52.20;;;;;;2581046;23;20082;-77
2022/08/23 18:31:14;;;;;;;2.90;1.98;;;28.90;52.30;;;;;;2582336;22;20007;-78
2022/08/23 18:32:15;;;;;;;4.95;2.42;;;28.90;52.60;;;;;;2581038;23;20031;-76
2022/08/23 18:33:18;;;;;;;7.00;2.45;;;28.90;52.40;;;;;;2580947;23;20015;-79
2022/08/23 18:34:19;;;;;;;5.35;1.90;;;28.90;52.40;;;;;;2581318;23;20035;-79
2022/08/23 18:35:20;;;;;;;4.93;2.10;;;28.80;52.70;;;;;;2568320;23;20016;-78
2022/08/23 18:36:21;;;;;;;5.78;1.92;;;28.80;52.70;;;;;;2568281;23;20004;-78
2022/08/23 18:37:22;;;;;;;4.10;2.00;;;28.80;53.00;;;;;;2581168;23;20084;-77
2022/08/23 18:38:22;;;;;;;4.47;1.90;;;28.70;53.20;;;;;;2582635;23;20004;-78
2022/08/23 18:39:23;;;;;;;3.53;2.05;;;28.70;53.30;;;;;;2581811;23;20011;-72
2022/08/23 18:40:26;;;;;;;4.40;1.98;;;28.60;53.40;;;;;;2581073;23;20134;-72
2022/08/23 18:41:26;;;;;;;5.88;2.05;;;28.60;53.80;;;;;;2581829;22;20012;-72
2022/08/23 18:42:27;;;;;;;3.85;2.10;;;28.60;54.30;;;;;;2582204;23;20497;-72
2022/08/23 18:43:28;;;;;;;5.40;2.08;;;28.60;54.40;;;;;;2581615;23;20020;-72
2022/08/23 18:44:29;;;;;;;3.25;1.92;;;28.50;54.30;;;;;;2581928;23;20053;-72
2022/08/23 18:45:30;;;;;;;5.68;2.10;;;28.40;54.50;;;;;;2582201;23;20008;-73
2022/08/23 18:46:32;;;;;;;5.20;2.13;;;28.40;54.60;;;;;;2581813;23;20479;-73
2022/08/23 18:47:33;;;;;;;4.50;2.20;;;28.40;54.80;;;;;;2581018;23;20031;-73
2022/08/23 18:48:35;;;;;;;3.05;2.00;;;28.40;55.20;;;;;;2580761;23;20006;-73
2022/08/23 18:49:37;;;;;;;6.80;2.10;;;28.30;55.60;;;;;;2581955;22;20004;-73
2022/08/23 18:50:39;;;;;;;4.78;2.38;;;28.30;55.60;;;;;;2581749;23;20050;-73
2022/08/23 18:51:40;;;;;;;5.00;2.40;;;28.20;55.70;;;;;;2583433;22;20053;-75
2022/08/23 18:52:41;;;;;;;6.45;2.15;;;28.20;56.20;;;;;;2594808;22;19999;-73
2022/08/23 18:53:42;;;;;;;5.70;2.17;;;28.20;56.40;;;;;;2594381;22;20007;-74
2022/08/23 18:54:43;;;;;;;8.60;2.25;;;28.10;56.70;;;;;;2594651;22;20007;-74
2022/08/23 18:55:44;;;;;;;5.65;1.95;;;28.10;56.90;;;;;;2594239;22;20023;-74
2022/08/23 18:56:45;;;;;;;5.35;2.65;;;28.10;57.20;;;;;;2594709;22;19999;-74
2022/08/23 18:57:46;;;;;;;5.80;2.00;;;28.00;57.30;;;;;;2594310;22;19999;-74
2022/08/23 18:58:47;;;;;;;6.70;2.33;;;28.00;57.30;;;;;;2594678;22;20004;-74
2022/08/23 18:59:47;;;;;;;6.45;2.00;;;27.90;57.40;;;;;;2594826;22;20071;-74
2022/08/23 19:00:48;;;;;;;3.65;2.15;;;27.90;57.80;;;;;;2594026;22;19996;-74
2022/08/23 19:01:48;;;;;;;2.88;1.88;;;27.90;58.00;;;;;;2594816;22;19996;-74
2022/08/23 19:02:49;;;;;;;7.80;2.72;;;27.80;58.20;;;;;;2580429;23;20015;-73
2022/08/23 19:03:51;;;;;;;4.65;2.13;;;27.80;58.30;;;;;;2580599;23;20062;-73
2022/08/23 19:04:54;;;;;;;5.57;2.20;;;27.70;58.20;;;;;;2594164;22;20038;-73
2022/08/23 19:05:55;;;;;;;3.92;2.15;;;27.70;58.70;;;;;;2594475;22;19996;-72
2022/08/23 19:06:56;;;;;;;3.97;2.00;;;27.70;59.10;;;;;;2594257;22;20003;-73
2022/08/23 19:07:56;;;;;;;9.23;2.42;;;27.60;59.30;;;;;;2594685;22;20027;-72
2022/08/23 19:08:59;;;;;;;4.70;2.30;;;27.60;59.70;;;;;;2594725;22;20403;-72
2022/08/23 19:10:00;;;;;;;4.65;2.13;;;27.60;59.70;;;;;;2594789;22;20082;-72
2022/08/23 19:11:00;;;;;;;4.85;2.33;;;27.50;59.90;;;;;;2593413;22;20011;-72
2022/08/23 19:12:02;;;;;;;2.95;1.80;;;27.50;60.40;;;;;;2580924;23;20015;-73
2022/08/23 19:13:03;;;;;;;5.85;2.28;;;27.40;60.40;;;;;;2580726;22;20007;-73
2022/08/23 19:14:05;;;;;;;6.68;2.60;;;27.40;60.20;;;;;;2594652;22;20007;-73
2022/08/23 19:15:06;;;;;;;5.97;2.53;;;27.40;60.40;;;;;;2594510;22;20011;-73
2022/08/23 19:16:11;;;;;;;10.88;2.40;;;27.30;60.60;;;;;;2593947;22;20340;-73
2022/08/23 19:17:12;;;;;;;8.15;2.25;;;27.30;61.10;;;;;;2594638;22;20000;-72
2022/08/23 19:18:13;;;;;;;6.60;2.38;;;27.30;61.50;;;;;;2594756;22;20015;-72
2022/08/23 19:19:14;;;;;;;6.25;2.10;;;27.30;62.00;;;;;;2594193;22;20000;-72
2022/08/23 19:20:15;;;;;;;8.35;2.38;;;27.20;62.60;;;;;;2594739;22;20365;-73
2022/08/23 19:21:19;;;;;;;6.20;2.22;;;27.20;62.60;;;;;;2581047;23;20154;-72
2022/08/23 19:22:20;;;;;;;4.95;2.67;;;27.20;63.90;;;;;;2581865;22;20078;-73
2022/08/23 19:23:20;;;;;;;5.18;2.20;;;27.10;63.10;;;;;;2594170;22;19996;-74
2022/08/23 19:24:22;;;;;;;4.45;2.30;;;27.10;63.30;;;;;;2594462;22;20516;-73
2022/08/23 19:25:24;;;;;;;4.90;2.38;;;27.00;63.20;;;;;;2594509;22;20007;-72
2022/08/23 19:26:33;;;;;;;3.92;2.13;;;27.00;63.50;;;;;;2580792;23;20666;-73
2022/08/23 19:27:34;;;;;;;3.72;2.05;;;27.00;63.90;;;;;;2582658;22;20000;-73
2022/08/23 19:28:34;;;;;;;6.47;2.47;;;26.90;64.00;;;;;;2594572;22;20004;-73
2022/08/23 19:29:35;;;;;;;6.68;2.55;;;26.90;64.50;;;;;;2594807;22;20003;-73
2022/08/23 19:30:36;;;;;;;7.90;2.83;;;26.80;65.00;;;;;;2594202;22;20000;-73
2022/08/23 19:31:41;;;;;;;8.27;2.70;;;26.80;65.50;;;;;;2595031;22;20003;-73
2022/08/23 19:32:43;;;;;;;6.05;2.60;;;26.80;65.70;;;;;;2596060;22;20045;-73
2022/08/23 19:33:44;;;;;;;4.07;2.47;;;26.80;66.20;;;;;;2595448;22;19992;-73
2022/08/23 19:34:45;;;;;;;5.60;2.97;;;26.70;66.60;;;;;;2596083;22;20003;-73
2022/08/23 19:35:45;;;;;;;7.05;3.03;;;26.70;67.10;;;;;;2595204;22;20023;-73
2022/08/23 19:36:46;;;;;;;3.08;2.13;;;26.70;67.50;;;;;;2595789;22;20660;-73
2022/08/23 19:37:46;;;;;;;4.72;2.17;;;26.70;67.80;;;;;;2596170;22;20079;-73
2022/08/23 19:38:47;;;;;;;6.75;2.67;;;26.60;67.60;;;;;;2596010;22;19999;-73
2022/08/23 19:39:47;;;;;;;5.50;2.30;;;26.60;67.90;;;;;;2595960;22;20070;-73
2022/08/23 19:40:48;;;;;;;8.10;3.20;;;26.50;68.30;;;;;;2595778;22;19996;-73
2022/08/23 19:41:49;;;;;;;5.05;2.83;;;26.50;69.00;;;;;;2595847;22;19999;-73
2022/08/23 19:42:49;;;;;;;6.05;2.63;;;26.50;69.50;;;;;;2596044;22;20014;-73
2022/08/23 19:43:50;;;;;;;6.15;2.42;;;26.40;69.30;;;;;;2581883;23;20004;-73
2022/08/23 19:44:52;;;;;;;4.20;2.40;;;26.40;69.80;;;;;;2582574;22;19999;-73
2022/08/23 19:45:52;;;;;;;3.90;2.47;;;26.30;70.30;;;;;;2595364;22;20050;-73
2022/08/23 19:46:54;;;;;;;6.72;3.22;;;26.30;70.80;;;;;;2595854;22;20010;-73
2022/08/23 19:47:58;;;;;;;3.88;2.22;;;26.30;71.30;;;;;;2596148;22;20030;-73
2022/08/23 19:48:59;;;;;;;7.85;2.97;;;26.30;71.80;;;;;;2596105;22;20446;-73
2022/08/23 19:49:59;;;;;;;3.40;2.40;;;26.30;72.10;;;;;;2595275;22;20435;-73
2022/08/23 19:51:00;;;;;;;9.48;3.33;;;26.30;72.80;;;;;;2595924;22;20086;-73
2022/08/23 19:52:00;;;;;;;6.47;2.72;;;26.20;73.40;;;;;;2595485;22;20038;-73
2022/08/23 19:53:02;;;;;;;3.05;2.35;;;26.20;74.00;;;;;;2582000;23;20004;-73
2022/08/23 19:54:03;;;;;;;4.45;2.75;;;26.20;74.40;;;;;;2582768;22;19996;-73
2022/08/23 19:55:06;;;;;;;3.50;2.40;;;26.10;74.30;;;;;;2581832;23;20007;-73
2022/08/23 19:56:07;;;;;;;6.65;2.60;;;26.10;74.20;;;;;;2582684;22;20063;-73
2022/08/23 19:57:08;;;;;;;6.65;2.72;;;26.10;74.80;;;;;;2596157;22;20000;-73
2022/08/23 19:58:13;;;;;;;7.20;2.58;;;26.00;75.70;;;;;;2595727;22;19996;-73
2022/08/23 19:59:20;;;;;;;8.13;2.65;;;26.00;76.70;;;;;;2596190;22;20003;-73
2022/08/23 20:00:21;;;;;;;4.68;2.28;;;26.00;77.70;;;;;;2595962;22;20046;-73
2022/08/23 20:01:22;;;;;;;4.13;2.47;;;26.00;78.30;;;;;;2595823;22;20079;-73
2022/08/23 20:02:22;;;;;;;4.47;2.22;;;26.00;78.30;;;;;;2595820;22;20026;-73
2022/08/23 20:03:23;;;;;;;5.65;2.33;;;26.00;79.30;;;;;;2595380;22;20054;-73
2022/08/23 20:04:26;;;;;;;6.57;2.85;;;26.00;80.00;;;;;;2582148;23;20042;-73
2022/08/23 20:05:27;;;;;;;6.78;2.65;;;26.00;80.70;;;;;;2583103;22;20075;-73
2022/08/23 20:06:28;;;;;;;8.43;2.90;;;25.90;81.50;;;;;;2595602;22;20003;-73
2022/08/23 20:07:29;;;;;;;4.68;2.65;;;26.00;81.20;;;;;;2596025;22;20058;-73
2022/08/23 20:08:30;;;;;;;3.70;2.33;;;26.00;82.00;;;;;;2595982;22;20008;-73
2022/08/23 20:09:32;;;;;;;7.05;2.70;;;25.90;82.20;;;;;;2596031;22;20503;-73
2022/08/23 20:10:32;;;;;;;14.27;2.95;;;25.90;83.10;;;;;;2596081;22;20000;-73
2022/08/23 20:11:33;;;;;;;3.55;2.08;;;25.90;84.70;;;;;;2595688;22;20015;-73
2022/08/23 20:12:34;;;;;;;6.35;2.40;;;25.90;84.70;;;;;;2595614;22;20015;-73